Time;durP1;ratioP1;P1;durP2;ratioP2;P2;SDS_P1;SDS_P2;PMS_P1;PMS_P2;Temp;Humidity;BMP_temperature;BMP_pressure;BME280_temperature;BME280_humidity;BME280_pressure;Samples;Min_cycle;Max_cycle;Signal;HPM_P1;HPM_P2
2021/12/12 00:01:34;;;;;;;8.23;6.00;;;11.30;99.90;;;;;;4993238;28;20104;-80
2021/12/12 00:04:14;;;;;;;10.93;5.93;;;11.30;99.90;;;;;;4998789;28;20096;-79
2021/12/12 00:06:52;;;;;;;9.00;5.63;;;11.40;99.90;;;;;;4997303;28;20089;-79
2021/12/12 00:09:28;;;;;;;13.63;5.82;;;11.30;99.90;;;;;;4994228;28;20892;-82
2021/12/12 00:11:56;;;;;;;9.88;6.18;;;11.30;99.90;;;;;;4999447;28;20054;-83
2021/12/12 00:14:27;;;;;;;9.63;5.93;;;11.30;99.90;;;;;;4993373;28;20057;-79
2021/12/12 00:16:56;;;;;;;8.05;5.57;;;11.30;99.90;;;;;;5003728;28;20525;-78
2021/12/12 00:19:25;;;;;;;11.93;5.63;;;11.30;99.90;;;;;;4977495;28;20088;-79
2021/12/12 00:21:55;;;;;;;9.18;5.90;;;11.30;99.90;;;;;;4991927;28;20108;-79
2021/12/12 00:24:23;;;;;;;9.75;6.80;;;11.30;99.90;;;;;;4996735;28;20054;-79
2021/12/12 00:26:53;;;;;;;11.77;6.13;;;11.20;99.90;;;;;;5014028;28;20112;-78
2021/12/12 00:29:21;;;;;;;12.70;6.13;;;11.20;99.90;;;;;;4992101;28;20047;-78
2021/12/12 00:31:51;;;;;;;8.98;6.03;;;11.20;99.90;;;;;;4994112;28;20089;-80
2021/12/12 00:34:19;;;;;;;10.13;6.05;;;11.20;99.90;;;;;;4988244;28;20105;-79
2021/12/12 00:36:46;;;;;;;12.50;6.60;;;11.20;99.90;;;;;;4993201;28;20051;-79
2021/12/12 00:39:21;;;;;;;12.30;6.53;;;11.30;99.90;;;;;;4992786;28;20097;-79
2021/12/12 00:42:07;;;;;;;12.85;6.15;;;11.30;99.90;;;;;;5002567;28;20076;-80
2021/12/12 00:44:37;;;;;;;11.63;6.28;;;11.30;99.90;;;;;;4978101;28;20054;-77
2021/12/12 00:47:07;;;;;;;10.50;6.35;;;11.30;99.90;;;;;;4985583;28;20514;-79
2021/12/12 00:49:35;;;;;;;12.23;5.90;;;11.30;99.90;;;;;;5007772;28;20092;-78
2021/12/12 00:52:04;;;;;;;11.73;5.82;;;11.20;99.90;;;;;;4993316;28;20572;-82
2021/12/12 00:54:32;;;;;;;9.38;6.18;;;11.20;99.90;;;;;;4996053;28;20417;-80
2021/12/12 00:57:03;;;;;;;11.02;6.15;;;11.20;99.90;;;;;;4994841;28;20636;-78
2021/12/12 00:59:31;;;;;;;10.70;6.43;;;11.20;99.90;;;;;;5012698;28;20050;-79
2021/12/12 01:01:59;;;;;;;13.65;6.43;;;11.20;99.90;;;;;;4995989;28;20581;-78
2021/12/12 01:04:41;;;;;;;12.48;7.28;;;11.20;99.90;;;;;;4995021;28;20061;-79
2021/12/12 01:07:15;;;;;;;11.57;6.00;;;11.20;99.90;;;;;;4996295;28;20493;-79
2021/12/12 01:09:49;;;;;;;11.93;6.90;;;11.20;99.90;;;;;;4995694;28;20045;-79
2021/12/12 01:12:23;;;;;;;11.25;6.57;;;11.20;99.90;;;;;;4994759;28;20046;-80
2021/12/12 01:14:55;;;;;;;9.20;6.05;;;11.20;99.90;;;;;;4995958;28;20046;-81
2021/12/12 01:17:34;;;;;;;13.23;6.30;;;11.10;99.90;;;;;;4990837;28;20534;-78
2021/12/12 01:20:12;;;;;;;8.20;6.05;;;11.10;99.90;;;;;;4990803;28;20046;-80
2021/12/12 01:22:40;;;;;;;9.80;6.50;;;11.10;99.90;;;;;;4993605;28;20078;-78
2021/12/12 01:25:17;;;;;;;11.60;7.32;;;11.20;99.90;;;;;;4996234;28;20050;-80
2021/12/12 01:27:45;;;;;;;10.10;7.43;;;11.20;99.90;;;;;;5012747;28;20477;-77
2021/12/12 01:30:13;;;;;;;13.30;7.78;;;11.10;99.90;;;;;;4993716;28;20105;-80
2021/12/12 01:32:41;;;;;;;14.45;7.65;;;11.10;99.90;;;;;;4996482;28;20046;-80
2021/12/12 01:35:15;;;;;;;16.00;8.27;;;11.10;99.90;;;;;;4986351;28;20046;-80
2021/12/12 01:38:51;;;;;;;15.02;7.85;;;11.10;99.90;;;;;;4987024;28;20423;-79
2021/12/12 01:40:41;;;;;;;13.85;8.52;;;11.10;99.90;;;;;;5013383;28;20133;-80
2021/12/12 01:43:20;;;;;;;13.38;8.07;;;11.10;99.90;;;;;;4997930;28;20457;-80
2021/12/12 01:45:54;;;;;;;15.02;7.47;;;11.10;99.90;;;;;;4997063;28;20399;-81
2021/12/12 01:48:31;;;;;;;14.55;8.30;;;11.10;99.90;;;;;;4998599;28;20073;-80
2021/12/12 01:51:03;;;;;;;13.50;8.07;;;11.10;99.90;;;;;;4999049;28;20061;-79
2021/12/12 01:53:33;;;;;;;19.60;8.30;;;11.20;99.90;;;;;;4997229;28;20049;-80
2021/12/12 01:56:08;;;;;;;12.35;7.85;;;11.10;99.90;;;;;;5003696;28;20065;-81
2021/12/12 01:58:38;;;;;;;16.52;8.77;;;11.10;99.90;;;;;;4994519;28;20051;-81
2021/12/12 02:01:16;;;;;;;17.50;8.45;;;11.10;99.90;;;;;;4993794;28;20101;-80
2021/12/12 02:04:09;;;;;;;15.93;9.35;;;11.00;99.90;;;;;;4995298;28;20114;-81
2021/12/12 02:06:38;;;;;;;19.75;9.52;;;10.90;99.90;;;;;;4997971;28;20057;-80
2021/12/12 02:09:07;;;;;;;17.02;9.00;;;10.90;99.90;;;;;;4998712;28;20054;-80
2021/12/12 02:11:39;;;;;;;17.60;9.40;;;10.90;99.90;;;;;;4998107;28;20078;-80
2021/12/12 02:14:11;;;;;;;14.68;8.93;;;11.00;99.90;;;;;;5002783;28;20045;-80
2021/12/12 02:16:46;;;;;;;20.80;9.73;;;11.00;99.90;;;;;;5000955;28;20077;-82
2021/12/12 02:19:15;;;;;;;15.07;8.93;;;11.00;99.90;;;;;;5004285;28;20102;-80
2021/12/12 02:22:22;;;;;;;21.95;8.95;;;11.10;99.90;;;;;;5004463;28;20096;-80
2021/12/12 02:35:54;;;;;;;22.08;9.48;;;11.00;99.90;;;;;;4997907;28;20050;-79
2021/12/12 02:38:28;;;;;;;27.00;10.85;;;11.00;99.90;;;;;;4993437;28;20086;-81
2021/12/12 02:41:07;;;;;;;23.02;10.57;;;11.00;99.90;;;;;;5000061;28;20046;-81
2021/12/12 02:43:40;;;;;;;24.10;10.07;;;11.00;99.90;;;;;;5000101;28;20417;-81
2021/12/12 02:46:07;;;;;;;24.67;10.50;;;11.00;99.90;;;;;;5017719;28;20061;-80
2021/12/12 02:48:39;;;;;;;23.77;11.07;;;11.00;99.90;;;;;;5014177;28;20049;-81
2021/12/12 02:51:10;;;;;;;25.02;10.70;;;11.00;99.90;;;;;;4998590;28;20050;-81
2021/12/12 02:53:52;;;;;;;21.00;10.10;;;11.00;99.90;;;;;;4994480;28;20050;-80
2021/12/12 02:56:25;;;;;;;21.23;10.45;;;11.10;99.90;;;;;;4994906;28;20113;-80
2021/12/12 02:58:52;;;;;;;20.73;10.93;;;11.00;99.90;;;;;;4997302;28;20108;-81
2021/12/12 03:01:27;;;;;;;24.10;10.95;;;11.00;99.90;;;;;;4996402;28;20100;-80
2021/12/12 03:03:55;;;;;;;22.90;10.18;;;11.00;99.90;;;;;;4997118;28;20061;-79
2021/12/12 03:06:27;;;;;;;26.83;11.10;;;11.00;99.90;;;;;;5015348;28;20073;-79
2021/12/12 03:09:06;;;;;;;18.65;9.88;;;11.00;99.90;;;;;;5003799;28;20208;-80
2021/12/12 03:11:33;;;;;;;24.10;10.10;;;11.00;99.90;;;;;;4998019;28;20046;-79
2021/12/12 03:14:00;;;;;;;28.73;10.18;;;11.10;99.90;;;;;;5000723;28;20104;-81
2021/12/12 03:16:28;;;;;;;23.13;9.88;;;11.10;99.90;;;;;;4995916;28;20120;-78
2021/12/12 03:18:56;;;;;;;24.65;9.82;;;11.00;99.90;;;;;;5004358;28;20494;-81
2021/12/12 03:21:32;;;;;;;21.55;9.90;;;11.10;99.90;;;;;;4998303;28;20690;-83
2021/12/12 03:24:07;;;;;;;20.23;9.30;;;11.10;99.90;;;;;;4997179;28;20104;-83
2021/12/12 03:26:36;;;;;;;20.10;9.60;;;11.10;99.90;;;;;;4980376;28;20105;-80
2021/12/12 03:29:06;;;;;;;21.75;9.68;;;11.10;99.90;;;;;;4979132;28;20557;-81
2021/12/12 03:31:36;;;;;;;22.92;9.90;;;11.10;99.90;;;;;;4989140;28;20054;-80
2021/12/12 03:34:10;;;;;;;19.75;9.50;;;11.10;99.90;;;;;;4997726;28;20053;-79
2021/12/12 03:36:38;;;;;;;24.17;9.75;;;11.10;99.90;;;;;;4986704;28;20134;-79
2021/12/12 03:39:10;;;;;;;24.13;8.82;;;11.10;99.90;;;;;;4993769;28;20050;-81
2021/12/12 03:41:40;;;;;;;19.38;8.80;;;11.10;99.90;;;;;;4997200;28;20042;-81
2021/12/12 03:44:12;;;;;;;19.65;8.82;;;11.10;99.90;;;;;;4999457;28;20050;-78
2021/12/12 03:46:41;;;;;;;24.40;9.55;;;11.10;99.90;;;;;;5000067;28;20045;-80
2021/12/12 03:49:09;;;;;;;26.80;10.18;;;11.10;99.90;;;;;;4998589;28;20050;-83
2021/12/12 03:51:38;;;;;;;15.90;8.77;;;11.10;99.90;;;;;;4993674;28;20046;-78
2021/12/12 03:54:05;;;;;;;22.10;8.63;;;11.10;99.90;;;;;;5004048;28;20104;-80
2021/12/12 03:56:33;;;;;;;20.90;8.50;;;11.10;99.90;;;;;;5000194;28;20572;-82
2021/12/12 03:59:00;;;;;;;19.38;8.23;;;11.10;99.90;;;;;;5000030;28;20041;-79
2021/12/12 04:01:41;;;;;;;20.10;8.65;;;11.10;99.90;;;;;;4994015;28;20151;-80
2021/12/12 04:04:21;;;;;;;15.45;7.68;;;11.10;99.90;;;;;;4994027;28;20058;-79
2021/12/12 04:06:50;;;;;;;25.00;7.82;;;11.10;99.90;;;;;;4994735;28;20054;-80
2021/12/12 04:09:18;;;;;;;23.67;7.60;;;11.20;99.90;;;;;;4993572;28;20100;-79
2021/12/12 04:11:52;;;;;;;17.60;7.60;;;11.10;99.90;;;;;;4993525;28;20074;-79
2021/12/12 04:14:20;;;;;;;24.60;7.95;;;11.20;99.90;;;;;;4993444;28;20050;-78
2021/12/12 04:16:52;;;;;;;20.35;7.63;;;11.20;99.90;;;;;;4996255;28;20054;-78
2021/12/12 04:19:20;;;;;;;24.25;8.30;;;11.20;99.90;;;;;;4995873;28;20614;-80
2021/12/12 04:21:47;;;;;;;20.23;7.85;;;11.20;99.90;;;;;;4993423;28;20105;-79
2021/12/12 04:24:39;;;;;;;24.20;7.40;;;11.10;99.90;;;;;;4993506;28;20054;-79
2021/12/12 04:27:07;;;;;;;20.73;7.97;;;11.10;99.90;;;;;;4977269;28;20101;-79
2021/12/12 04:29:42;;;;;;;22.65;7.63;;;11.10;99.90;;;;;;4995335;28;20085;-80
2021/12/12 04:32:21;;;;;;;18.10;7.55;;;11.10;99.90;;;;;;4995785;28;20057;-80
2021/12/12 04:34:54;;;;;;;17.02;7.50;;;11.10;99.90;;;;;;4996925;28;20104;-79
2021/12/12 04:37:22;;;;;;;18.75;6.90;;;11.10;99.90;;;;;;4987401;28;20159;-78
2021/12/12 04:39:53;;;;;;;14.27;6.82;;;11.10;99.90;;;;;;4993464;28;20057;-78
2021/12/12 04:42:26;;;;;;;15.35;6.35;;;11.10;99.90;;;;;;4996379;28;20058;-81
2021/12/12 04:45:07;;;;;;;20.33;6.72;;;11.20;99.90;;;;;;4996725;28;20053;-81
2021/12/12 04:50:54;;;;;;;19.02;6.90;;;11.20;99.90;;;;;;5004315;28;20569;-83
2021/12/12 04:53:33;;;;;;;13.73;5.95;;;11.20;99.90;;;;;;4996745;28;20073;-81
2021/12/12 04:56:03;;;;;;;19.23;6.20;;;11.20;99.90;;;;;;4988818;28;20136;-83
2021/12/12 04:59:00;;;;;;;17.70;6.30;;;11.20;99.90;;;;;;4981124;28;20533;-80
2021/12/12 05:01:45;;;;;;;13.90;5.63;;;11.20;99.90;;;;;;4980418;28;20081;-83
2021/12/12 05:04:32;;;;;;;15.32;6.03;;;11.20;99.90;;;;;;5009887;28;20426;-81
2021/12/12 05:07:03;;;;;;;15.63;5.65;;;11.20;99.90;;;;;;4993589;28;20046;-80
2021/12/12 05:09:35;;;;;;;13.20;5.47;;;11.20;99.90;;;;;;4976451;28;20046;-79
2021/12/12 05:12:11;;;;;;;10.48;5.35;;;11.20;99.90;;;;;;4978931;28;20120;-78
2021/12/12 05:14:44;;;;;;;11.57;5.82;;;11.20;99.90;;;;;;4998480;28;20525;-82
2021/12/12 05:17:28;;;;;;;19.13;5.40;;;11.20;99.90;;;;;;4989313;28;20122;-79
2021/12/12 05:20:06;;;;;;;12.55;5.22;;;11.20;99.90;;;;;;4988105;28;20050;-81
2021/12/12 05:22:39;;;;;;;12.23;5.05;;;11.30;99.90;;;;;;5007014;28;20046;-77
2021/12/12 05:25:16;;;;;;;18.77;5.22;;;11.20;99.90;;;;;;4991754;28;20042;-78
2021/12/12 05:27:44;;;;;;;11.13;4.75;;;11.30;99.90;;;;;;4993549;28;20054;-80
2021/12/12 05:30:16;;;;;;;14.23;5.40;;;11.20;99.90;;;;;;4996055;28;20097;-80
2021/12/12 05:32:44;;;;;;;13.32;4.32;;;11.20;99.90;;;;;;4996836;28;20537;-80
2021/12/12 05:35:15;;;;;;;15.30;5.63;;;11.30;99.90;;;;;;4999925;28;20053;-81
2021/12/12 05:37:46;;;;;;;8.32;4.22;;;11.20;99.90;;;;;;4995217;28;20101;-78
2021/12/12 05:40:13;;;;;;;12.63;4.80;;;11.20;99.90;;;;;;4986389;28;20046;-79
2021/12/12 05:42:42;;;;;;;11.90;5.35;;;11.20;99.90;;;;;;4995359;28;20049;-80
2021/12/12 05:45:10;;;;;;;11.00;4.40;;;11.30;99.90;;;;;;4998199;28;20095;-79
2021/12/12 05:47:37;;;;;;;7.88;4.45;;;11.30;99.90;;;;;;4999631;28;20054;-79
2021/12/12 05:50:07;;;;;;;9.73;3.92;;;11.30;99.90;;;;;;4998174;28;20050;-78
2021/12/12 05:52:34;;;;;;;11.20;4.05;;;11.30;99.90;;;;;;4999008;28;20050;-81
2021/12/12 05:55:05;;;;;;;9.05;3.70;;;11.30;99.90;;;;;;5017103;28;20053;-79
2021/12/12 05:57:34;;;;;;;8.73;3.15;;;11.30;99.90;;;;;;4999325;28;20046;-80
2021/12/12 06:00:08;;;;;;;8.15;3.25;;;11.30;99.90;;;;;;4999810;28;20061;-81
2021/12/12 06:02:36;;;;;;;7.50;2.60;;;11.30;99.90;;;;;;4999364;28;20050;-80
2021/12/12 06:05:04;;;;;;;9.77;2.55;;;11.30;99.90;;;;;;5000226;28;20100;-79
2021/12/12 06:07:32;;;;;;;14.40;2.20;;;11.30;99.90;;;;;;4998514;28;20077;-80
2021/12/12 06:10:03;;;;;;;7.82;2.40;;;11.30;99.90;;;;;;4982112;28;20105;-80
2021/12/12 06:12:34;;;;;;;4.25;2.05;;;11.30;99.90;;;;;;4999251;28;20041;-81
2021/12/12 06:15:05;;;;;;;6.97;2.22;;;11.30;99.90;;;;;;5000483;28;20053;-78
2021/12/12 06:17:33;;;;;;;6.93;2.45;;;11.30;99.90;;;;;;4997794;28;20050;-80
2021/12/12 06:20:01;;;;;;;11.48;2.60;;;11.30;99.90;;;;;;4997675;28;20468;-80
2021/12/12 06:22:29;;;;;;;8.52;2.47;;;11.30;99.90;;;;;;4998865;28;20049;-78
2021/12/12 06:24:56;;;;;;;11.05;2.85;;;11.30;99.90;;;;;;5010630;28;20054;-79
2021/12/12 06:27:23;;;;;;;14.80;3.05;;;11.30;99.90;;;;;;5001995;28;20046;-79
2021/12/12 06:29:54;;;;;;;8.88;2.55;;;11.30;99.90;;;;;;4998706;28;20074;-80
2021/12/12 06:32:22;;;;;;;8.85;2.85;;;11.30;99.90;;;;;;4997112;28;20113;-80
2021/12/12 06:34:50;;;;;;;13.45;2.88;;;11.30;99.90;;;;;;4996019;28;20576;-79
2021/12/12 06:37:18;;;;;;;9.98;2.75;;;11.20;99.90;;;;;;4997232;28;20050;-77
2021/12/12 06:39:45;;;;;;;9.48;2.65;;;11.20;99.90;;;;;;4996604;28;20042;-80
2021/12/12 06:42:13;;;;;;;8.18;3.03;;;11.10;99.90;;;;;;4998862;28;20053;-80
2021/12/12 06:44:41;;;;;;;11.40;2.70;;;11.00;99.90;;;;;;4993629;28;20506;-80
2021/12/12 06:47:12;;;;;;;9.38;2.35;;;10.90;99.90;;;;;;4992047;28;20070;-80
2021/12/12 06:49:39;;;;;;;10.68;2.72;;;10.80;99.90;;;;;;4995141;28;20109;-80
2021/12/12 06:52:10;;;;;;;11.32;2.45;;;10.80;99.90;;;;;;4994068;28;20046;-80
2021/12/12 06:54:38;;;;;;;5.28;2.00;;;10.90;99.90;;;;;;4994624;28;20561;-79
2021/12/12 06:57:09;;;;;;;6.78;1.83;;;11.00;99.90;;;;;;4998629;28;20057;-80
2021/12/12 06:59:38;;;;;;;6.53;2.03;;;11.00;99.90;;;;;;5002421;28;20800;-81
2021/12/12 07:02:06;;;;;;;11.75;3.25;;;11.10;99.90;;;;;;4998106;28;20046;-80
2021/12/12 07:04:37;;;;;;;9.68;1.95;;;11.20;99.90;;;;;;4997793;28;20522;-77
2021/12/12 07:07:06;;;;;;;10.80;2.00;;;11.20;99.90;;;;;;4997143;28;20057;-79
2021/12/12 07:09:35;;;;;;;8.05;2.22;;;11.30;99.90;;;;;;4994515;28;20116;-79
2021/12/12 07:12:07;;;;;;;10.45;2.35;;;11.30;99.90;;;;;;4995793;28;20113;-79
2021/12/12 07:14:37;;;;;;;7.90;1.90;;;11.30;99.90;;;;;;5001032;28;20050;-80
2021/12/12 07:17:06;;;;;;;13.20;2.40;;;11.30;99.90;;;;;;4997506;28;20093;-80
2021/12/12 07:19:33;;;;;;;8.85;2.28;;;11.30;99.90;;;;;;4993746;28;20069;-79
2021/12/12 07:22:01;;;;;;;12.32;2.40;;;11.40;99.90;;;;;;5004118;28;20572;-80
2021/12/12 07:24:29;;;;;;;11.55;2.22;;;11.40;99.90;;;;;;4995336;28;20100;-80
2021/12/12 07:26:58;;;;;;;13.93;2.17;;;11.40;99.90;;;;;;5003485;28;20177;-80
2021/12/12 07:29:27;;;;;;;7.60;1.85;;;11.40;99.90;;;;;;4993734;28;20045;-79
2021/12/12 07:31:54;;;;;;;8.88;1.70;;;11.40;99.90;;;;;;4991044;28;20042;-79
2021/12/12 07:34:22;;;;;;;10.45;1.92;;;11.40;99.90;;;;;;4994242;28;20054;-80
2021/12/12 07:36:52;;;;;;;9.40;1.92;;;11.40;99.90;;;;;;4988229;28;20070;-81
2021/12/12 07:39:22;;;;;;;7.40;1.55;;;11.40;99.90;;;;;;5009496;28;20100;-80
2021/12/12 07:41:51;;;;;;;11.55;2.05;;;11.40;99.90;;;;;;4995200;28;20046;-79
2021/12/12 07:44:21;;;;;;;13.68;2.53;;;11.40;99.90;;;;;;5004493;28;20046;-80
2021/12/12 07:46:49;;;;;;;9.45;2.10;;;11.40;99.90;;;;;;4986115;28;20050;-79
2021/12/12 07:49:21;;;;;;;9.40;1.63;;;11.40;99.90;;;;;;4998366;28;20050;-79
2021/12/12 07:51:49;;;;;;;10.10;1.80;;;11.40;99.90;;;;;;4997157;28;20041;-81
2021/12/12 07:54:16;;;;;;;10.82;2.00;;;11.40;99.90;;;;;;4997050;28;20050;-80
2021/12/12 07:56:45;;;;;;;15.27;2.53;;;11.40;99.90;;;;;;4996385;28;20065;-79
2021/12/12 07:59:13;;;;;;;7.38;1.48;;;11.40;99.90;;;;;;4994393;28;20075;-81
2021/12/12 08:01:43;;;;;;;11.68;2.30;;;11.40;99.90;;;;;;4998450;28;21157;-82
2021/12/12 08:04:12;;;;;;;10.95;2.10;;;11.50;99.90;;;;;;4997248;28;20459;-79
2021/12/12 08:06:40;;;;;;;14.50;2.92;;;11.50;99.90;;;;;;4992632;28;20112;-80
2021/12/12 08:09:08;;;;;;;13.80;3.13;;;11.50;99.90;;;;;;4988599;28;20093;-78
2021/12/12 08:11:38;;;;;;;11.88;2.75;;;11.50;99.90;;;;;;4987717;28;20644;-81
2021/12/12 08:14:08;;;;;;;11.35;3.00;;;11.50;99.90;;;;;;4998008;28;20050;-80
2021/12/12 08:16:36;;;;;;;15.73;7.00;;;11.50;99.90;;;;;;4987331;28;20047;-80
2021/12/12 08:19:06;;;;;;;25.85;9.32;;;11.50;99.90;;;;;;4994305;28;20046;-77
2021/12/12 08:21:34;;;;;;;11.30;5.78;;;11.50;99.90;;;;;;4980321;28;20056;-82
2021/12/12 08:24:06;;;;;;;14.60;3.30;;;11.40;99.90;;;;;;4995512;28;20062;-79
2021/12/12 08:26:35;;;;;;;16.38;6.18;;;11.40;99.90;;;;;;4992873;28;20445;-78
2021/12/12 08:29:05;;;;;;;21.50;3.35;;;11.40;99.90;;;;;;4994889;28;20050;-79
2021/12/12 08:31:33;;;;;;;6.28;2.38;;;11.40;99.90;;;;;;5000001;28;20117;-79
2021/12/12 08:34:06;;;;;;;9.18;2.30;;;11.40;99.90;;;;;;4983383;28;20111;-80
2021/12/12 08:36:39;;;;;;;13.13;2.65;;;11.40;99.90;;;;;;4993054;28;20050;-81
2021/12/12 08:39:09;;;;;;;12.98;3.22;;;11.30;99.90;;;;;;4991958;28;20485;-80
2021/12/12 08:41:37;;;;;;;9.15;3.08;;;11.30;99.90;;;;;;5003636;28;20054;-80
2021/12/12 08:44:06;;;;;;;11.00;2.88;;;11.30;99.90;;;;;;4993813;28;20459;-80
2021/12/12 08:46:33;;;;;;;15.57;3.25;;;11.30;99.90;;;;;;4990094;28;20041;-79
2021/12/12 08:49:01;;;;;;;13.80;2.40;;;11.40;99.90;;;;;;5005472;28;20046;-79
2021/12/12 08:51:34;;;;;;;12.20;2.47;;;11.40;99.90;;;;;;5000812;28;20700;-79
2021/12/12 08:54:13;;;;;;;8.48;1.92;;;11.50;99.90;;;;;;4992857;28;20062;-80
2021/12/12 08:56:48;;;;;;;13.73;2.53;;;11.50;99.90;;;;;;5003873;28;20054;-80
2021/12/12 08:59:20;;;;;;;10.30;2.05;;;11.50;99.90;;;;;;4995410;28;20563;-78
2021/12/12 09:01:50;;;;;;;13.13;1.70;;;11.60;99.90;;;;;;4992829;28;20045;-79
2021/12/12 09:04:19;;;;;;;12.98;2.47;;;11.60;99.90;;;;;;4996612;28;20132;-80
2021/12/12 09:07:19;;;;;;;13.50;2.22;;;11.60;99.90;;;;;;4992013;28;20045;-77
2021/12/12 09:10:21;;;;;;;11.25;1.90;;;11.60;99.90;;;;;;4997009;28;20101;-80
2021/12/12 09:13:02;;;;;;;11.23;1.70;;;11.60;99.90;;;;;;4988879;28;20045;-80
2021/12/12 09:15:42;;;;;;;13.05;2.17;;;11.60;99.90;;;;;;5015970;28;20096;-83
2021/12/12 09:18:18;;;;;;;11.15;2.10;;;11.60;99.90;;;;;;4994456;28;21755;-82
2021/12/12 09:21:23;;;;;;;8.60;1.50;;;11.60;99.90;;;;;;4997551;28;20047;-82
2021/12/12 09:24:13;;;;;;;13.10;1.95;;;11.60;99.90;;;;;;5012145;28;20060;-86
2021/12/12 09:26:49;;;;;;;8.77;2.20;;;11.60;99.90;;;;;;4994873;28;20062;-78
2021/12/12 09:29:29;;;;;;;13.68;3.03;;;11.60;99.90;;;;;;4998475;28;20117;-78
2021/12/12 09:32:05;;;;;;;17.48;2.00;;;11.60;99.90;;;;;;5012016;28;20053;-78
2021/12/12 09:34:55;;;;;;;12.30;2.33;;;11.60;99.90;;;;;;4994723;28;20089;-80
2021/12/12 09:37:38;;;;;;;6.50;1.88;;;11.60;99.90;;;;;;4995972;28;20112;-80
2021/12/12 09:40:35;;;;;;;14.60;2.17;;;11.70;99.90;;;;;;5010222;28;20046;-79
2021/12/12 09:43:49;;;;;;;15.75;2.22;;;11.70;99.90;;;;;;4993247;28;20096;-78
2021/12/12 09:46:20;;;;;;;9.02;2.17;;;11.70;99.90;;;;;;4973126;28;20457;-78
2021/12/12 09:52:39;;;;;;;11.85;2.33;;;11.70;99.90;;;;;;5009305;28;20065;-79
2021/12/12 09:55:26;;;;;;;13.32;2.47;;;11.70;99.90;;;;;;4949834;28;20058;-79
2021/12/12 09:58:14;;;;;;;9.20;2.05;;;11.70;99.90;;;;;;4985377;28;20421;-78
2021/12/12 10:00:49;;;;;;;9.25;2.50;;;11.70;99.90;;;;;;4994670;28;20092;-81
2021/12/12 10:03:16;;;;;;;13.13;2.50;;;11.70;99.90;;;;;;4995582;28;20046;-79
2021/12/12 10:06:01;;;;;;;11.38;2.50;;;11.70;99.90;;;;;;4975938;28;20058;-78
2021/12/12 10:08:35;;;;;;;12.50;1.95;;;11.70;99.90;;;;;;4987830;28;20046;-80
2021/12/12 10:11:07;;;;;;;12.50;2.50;;;11.70;99.90;;;;;;4994999;28;20686;-79
2021/12/12 10:13:50;;;;;;;10.00;2.03;;;11.70;99.90;;;;;;4993715;28;20076;-79
2021/12/12 10:16:33;;;;;;;16.52;2.22;;;11.70;99.90;;;;;;5012405;28;20488;-79
2021/12/12 10:19:12;;;;;;;13.25;3.47;;;11.70;99.90;;;;;;4995401;28;20053;-78
2021/12/12 10:21:59;;;;;;;8.95;2.15;;;11.70;99.90;;;;;;4991522;28;20480;-80
2021/12/12 10:24:37;;;;;;;14.52;2.53;;;11.70;99.90;;;;;;4991589;28;20054;-76
2021/12/12 10:27:32;;;;;;;12.70;3.03;;;11.70;99.90;;;;;;4984662;28;20108;-81
2021/12/12 10:30:15;;;;;;;12.27;4.65;;;11.80;99.90;;;;;;4998808;28;20042;-77
2021/12/12 10:33:19;;;;;;;10.23;2.60;;;11.80;99.90;;;;;;4998066;28;20112;-78
2021/12/12 10:35:59;;;;;;;12.70;2.00;;;11.80;99.90;;;;;;4994828;28;20109;-78
2021/12/12 10:38:54;;;;;;;11.52;1.80;;;11.80;99.90;;;;;;4979108;28;20142;-80
2021/12/12 10:41:30;;;;;;;11.23;1.88;;;11.80;99.90;;;;;;4993391;28;20461;-79
2021/12/12 10:44:03;;;;;;;10.30;2.20;;;11.80;99.90;;;;;;4992118;28;20047;-78
2021/12/12 10:46:40;;;;;;;8.50;2.10;;;11.80;99.90;;;;;;4996871;28;20441;-79
2021/12/12 10:49:12;;;;;;;10.32;1.90;;;11.80;99.90;;;;;;4999353;28;20057;-78
2021/12/12 10:51:47;;;;;;;11.50;2.70;;;11.90;99.90;;;;;;4997640;28;20058;-78
2021/12/12 10:54:26;;;;;;;9.18;2.20;;;11.90;99.90;;;;;;5003128;28;20576;-79
2021/12/12 10:57:14;;;;;;;10.43;2.63;;;11.90;99.90;;;;;;4996367;28;20104;-77
2021/12/12 10:59:46;;;;;;;;;;;11.90;99.90;;;;;;4997085;28;20050;-78
2021/12/12 11:02:18;;;;;;;12.18;2.30;;;11.90;99.90;;;;;;5013837;28;19929;-78
2021/12/12 11:05:14;;;;;;;12.35;2.35;;;11.90;99.90;;;;;;4998621;28;20054;-78
2021/12/12 11:07:49;;;;;;;12.15;2.85;;;12.00;99.90;;;;;;4998066;28;20100;-77
2021/12/12 11:10:24;;;;;;;13.63;3.30;;;12.00;99.90;;;;;;5008287;28;20132;-78
2021/12/12 11:13:15;;;;;;;15.88;2.95;;;12.00;99.90;;;;;;4994581;28;20108;-78
2021/12/12 11:15:50;;;;;;;14.65;3.33;;;12.00;99.90;;;;;;4999454;28;20108;-81
2021/12/12 11:18:25;;;;;;;16.45;2.83;;;12.00;99.90;;;;;;4999173;28;20057;-78
2021/12/12 11:20:59;;;;;;;13.65;2.75;;;12.00;99.90;;;;;;4997755;28;20082;-78
2021/12/12 11:23:29;;;;;;;16.48;2.78;;;12.00;99.90;;;;;;4996440;28;20069;-78
2021/12/12 11:26:00;;;;;;;11.75;2.78;;;12.00;99.90;;;;;;4994211;28;20518;-80
2021/12/12 11:28:46;;;;;;;12.07;2.55;;;12.00;99.90;;;;;;4988693;28;20147;-80
2021/12/12 11:31:32;;;;;;;12.52;2.83;;;12.10;99.90;;;;;;4994201;28;20497;-81
2021/12/12 11:33:59;;;;;;;15.93;3.10;;;12.10;99.90;;;;;;4996486;28;20100;-80
2021/12/12 11:36:31;;;;;;;11.27;2.35;;;12.10;99.90;;;;;;5009950;28;20081;-79
2021/12/12 11:39:23;;;;;;;12.80;3.70;;;12.10;99.90;;;;;;4997722;28;20485;-79
2021/12/12 11:42:26;;;;;;;19.17;2.80;;;12.20;99.90;;;;;;4995305;28;20733;-77
2021/12/12 11:45:00;;;;;;;13.27;3.03;;;12.20;99.90;;;;;;4987226;28;20058;-79
2021/12/12 11:47:45;;;;;;;9.50;2.75;;;12.20;99.90;;;;;;5006214;28;20514;-81
2021/12/12 11:50:41;;;;;;;11.48;2.80;;;12.30;99.90;;;;;;4979546;28;20042;-78
2021/12/12 11:53:13;;;;;;;7.75;2.53;;;12.30;99.90;;;;;;4997319;28;20046;-80
2021/12/12 11:55:45;;;;;;;12.90;2.92;;;12.30;99.90;;;;;;4997878;28;20096;-77
2021/12/12 11:58:24;;;;;;;19.05;4.07;;;12.40;99.90;;;;;;4993074;28;20050;-77
2021/12/12 12:01:20;;;;;;;12.00;3.17;;;12.40;99.90;;;;;;4996733;28;20046;-79
2021/12/12 12:04:00;;;;;;;12.70;2.50;;;12.40;99.90;;;;;;5001605;28;20076;-82
2021/12/12 12:06:38;;;;;;;15.60;3.13;;;12.40;99.90;;;;;;4993955;28;20153;-80
2021/12/12 12:09:42;;;;;;;14.43;3.20;;;12.40;99.90;;;;;;5010938;28;20448;-78
2021/12/12 12:12:52;;;;;;;13.10;2.78;;;12.40;99.90;;;;;;5013672;28;20046;-80
2021/12/12 12:15:40;;;;;;;11.07;2.88;;;12.40;99.90;;;;;;4981313;28;20043;-80
2021/12/12 12:18:37;;;;;;;12.30;2.53;;;12.40;99.90;;;;;;4985895;28;20065;-80
2021/12/12 12:21:29;;;;;;;14.07;2.58;;;12.40;99.90;;;;;;4993196;28;20043;-79
2021/12/12 12:24:13;;;;;;;12.80;2.58;;;12.50;99.90;;;;;;4994096;28;20145;-81
2021/12/12 12:26:52;;;;;;;20.85;2.58;;;12.40;99.90;;;;;;4985226;28;20101;-81
2021/12/12 12:29:25;;;;;;;17.77;2.92;;;12.50;99.90;;;;;;4976826;28;20561;-79
2021/12/12 12:32:04;;;;;;;11.23;2.55;;;12.50;99.90;;;;;;4986934;28;20104;-82
2021/12/12 12:34:58;;;;;;;12.45;2.03;;;12.50;99.90;;;;;;4978731;28;20051;-79
2021/12/12 12:37:31;;;;;;;10.43;3.00;;;12.50;99.90;;;;;;4995559;28;20049;-79
2021/12/12 12:40:36;;;;;;;12.30;2.63;;;12.50;99.90;;;;;;4995805;28;20104;-80
2021/12/12 12:43:51;;;;;;;6.75;2.67;;;12.50;99.90;;;;;;4995766;28;20092;-80
2021/12/12 12:46:49;;;;;;;13.85;3.08;;;12.60;99.90;;;;;;4944561;28;20130;-79
2021/12/12 12:49:16;;;;;;;15.75;3.72;;;12.60;99.90;;;;;;4991636;28;20082;-80
2021/12/12 12:52:07;;;;;;;7.43;2.25;;;12.60;99.90;;;;;;5008045;28;20073;-78
2021/12/12 12:55:07;;;;;;;14.48;2.95;;;12.60;99.90;;;;;;4986538;28;20050;-78
2021/12/12 12:57:40;;;;;;;11.60;2.72;;;12.60;99.90;;;;;;4994524;28;20046;-77
2021/12/12 13:00:15;;;;;;;14.77;2.85;;;12.60;99.90;;;;;;5009471;28;20470;-78
2021/12/12 13:03:10;;;;;;;16.65;4.20;;;12.60;99.90;;;;;;4995170;28;20046;-78
2021/12/12 13:06:03;;;;;;;12.45;3.38;;;12.60;99.90;;;;;;5000428;28;20054;-78
2021/12/12 13:09:15;;;;;;;15.98;3.40;;;12.60;99.90;;;;;;4993666;28;20080;-78
2021/12/12 13:11:54;;;;;;;12.70;2.50;;;12.70;99.90;;;;;;4993053;28;20537;-78
2021/12/12 13:15:00;;;;;;;17.80;3.03;;;12.70;99.90;;;;;;4994240;28;20100;-77
2021/12/12 13:17:53;;;;;;;16.63;4.10;;;12.60;99.90;;;;;;4977183;28;20042;-78
2021/12/12 13:20:51;;;;;;;18.50;3.17;;;12.70;99.90;;;;;;4992529;28;20076;-78
2021/12/12 13:23:24;;;;;;;14.65;2.90;;;12.70;99.90;;;;;;4985063;28;20054;-79
2021/12/12 13:26:02;;;;;;;11.50;3.15;;;12.70;99.90;;;;;;5003289;28;20081;-77
2021/12/12 13:28:52;;;;;;;13.35;2.80;;;12.70;99.90;;;;;;4997411;28;20077;-78
2021/12/12 13:31:35;;;;;;;11.68;3.30;;;12.70;99.90;;;;;;4995978;28;20081;-79
2021/12/12 13:34:18;;;;;;;8.88;2.60;;;12.70;99.90;;;;;;5003358;28;20046;-78
2021/12/12 13:36:54;;;;;;;13.32;2.70;;;12.70;99.90;;;;;;4982889;28;20050;-78
2021/12/12 13:39:30;;;;;;;8.82;2.38;;;12.70;99.90;;;;;;4998128;28;20422;-80